sensor_id;sensor_type;location;lat;lon;timestamp;P1;durP1;ratioP1;P2;durP2;ratioP2
75195;SDS011;63773;42.282;22.782;2022-12-05T00:01:41;16.33;;;8.73;;
75195;SDS011;63773;42.282;22.782;2022-12-05T00:04:09;20.05;;;7.55;;
75195;SDS011;63773;42.282;22.782;2022-12-05T00:06:35;16.25;;;7.90;;
75195;SDS011;63773;42.282;22.782;2022-12-05T00:09:01;15.23;;;8.13;;
75195;SDS011;63773;42.282;22.782;2022-12-05T00:11:27;18.10;;;8.43;;
75195;SDS011;63773;42.282;22.782;2022-12-05T00:13:53;16.77;;;8.57;;
75195;SDS011;63773;42.282;22.782;2022-12-05T00:16:20;12.63;;;7.35;;
75195;SDS011;63773;42.282;22.782;2022-12-05T00:18:45;13.95;;;6.82;;
75195;SDS011;63773;42.282;22.782;2022-12-05T00:21:19;13.68;;;7.78;;
75195;SDS011;63773;42.282;22.782;2022-12-05T00:23:51;16.63;;;7.70;;
75195;SDS011;63773;42.282;22.782;2022-12-05T00:26:17;15.73;;;8.05;;
75195;SDS011;63773;42.282;22.782;2022-12-05T00:28:42;14.50;;;7.32;;
75195;SDS011;63773;42.282;22.782;2022-12-05T00:31:09;14.57;;;7.20;;
75195;SDS011;63773;42.282;22.782;2022-12-05T00:33:41;14.85;;;7.28;;
75195;SDS011;63773;42.282;22.782;2022-12-05T00:36:12;13.18;;;7.43;;
75195;SDS011;63773;42.282;22.782;2022-12-05T00:38:37;14.18;;;7.40;;
75195;SDS011;63773;42.282;22.782;2022-12-05T00:41:07;17.50;;;8.13;;
75195;SDS011;63773;42.282;22.782;2022-12-05T00:43:32;17.13;;;7.95;;
75195;SDS011;63773;42.282;22.782;2022-12-05T00:46:04;16.43;;;7.00;;
75195;SDS011;63773;42.282;22.782;2022-12-05T00:48:30;16.67;;;8.05;;
75195;SDS011;63773;42.282;22.782;2022-12-05T00:51:05;18.05;;;10.02;;
75195;SDS011;63773;42.282;22.782;2022-12-05T00:53:31;21.10;;;10.30;;
75195;SDS011;63773;42.282;22.782;2022-12-05T00:56:00;18.77;;;8.00;;
75195;SDS011;63773;42.282;22.782;2022-12-05T00:58:25;21.00;;;9.32;;
75195;SDS011;63773;42.282;22.782;2022-12-05T01:00:51;17.33;;;9.30;;
75195;SDS011;63773;42.282;22.782;2022-12-05T01:03:16;16.93;;;7.67;;
75195;SDS011;63773;42.282;22.782;2022-12-05T01:05:41;19.10;;;8.87;;
75195;SDS011;63773;42.282;22.782;2022-12-05T01:08:06;21.30;;;9.50;;
75195;SDS011;63773;42.282;22.782;2022-12-05T01:10:32;19.63;;;9.47;;
75195;SDS011;63773;42.282;22.782;2022-12-05T01:12:57;13.07;;;7.77;;
75195;SDS011;63773;42.282;22.782;2022-12-05T01:15:23;15.85;;;8.80;;
75195;SDS011;63773;42.282;22.782;2022-12-05T01:17:48;16.83;;;8.77;;
75195;SDS011;63773;42.282;22.782;2022-12-05T01:20:13;17.80;;;7.97;;
75195;SDS011;63773;42.282;22.782;2022-12-05T01:22:38;19.60;;;9.60;;
75195;SDS011;63773;42.282;22.782;2022-12-05T01:25:04;18.30;;;8.53;;
75195;SDS011;63773;42.282;22.782;2022-12-05T01:27:29;16.60;;;9.15;;
75195;SDS011;63773;42.282;22.782;2022-12-05T01:29:54;21.77;;;9.60;;
75195;SDS011;63773;42.282;22.782;2022-12-05T01:32:20;19.43;;;8.43;;
75195;SDS011;63773;42.282;22.782;2022-12-05T01:34:45;31.07;;;13.40;;
75195;SDS011;63773;42.282;22.782;2022-12-05T01:37:10;17.67;;;9.03;;
75195;SDS011;63773;42.282;22.782;2022-12-05T01:39:35;17.20;;;9.47;;
75195;SDS011;63773;42.282;22.782;2022-12-05T01:42:01;19.20;;;10.13;;
75195;SDS011;63773;42.282;22.782;2022-12-05T01:46:54;21.80;;;10.00;;
75195;SDS011;63773;42.282;22.782;2022-12-05T01:51:51;19.08;;;8.93;;
75195;SDS011;63773;42.282;22.782;2022-12-05T01:54:18;17.23;;;10.00;;
75195;SDS011;63773;42.282;22.782;2022-12-05T01:56:46;20.10;;;9.38;;
75195;SDS011;63773;42.282;22.782;2022-12-05T01:59:12;26.17;;;11.75;;
75195;SDS011;63773;42.282;22.782;2022-12-05T02:01:37;22.25;;;10.05;;
75195;SDS011;63773;42.282;22.782;2022-12-05T02:04:03;24.60;;;10.23;;
75195;SDS011;63773;42.282;22.782;2022-12-05T02:06:29;21.77;;;10.75;;
75195;SDS011;63773;42.282;22.782;2022-12-05T02:08:55;23.67;;;11.15;;
75195;SDS011;63773;42.282;22.782;2022-12-05T02:11:21;18.03;;;9.83;;
75195;SDS011;63773;42.282;22.782;2022-12-05T02:21:47;25.80;;;11.40;;
75195;SDS011;63773;42.282;22.782;2022-12-05T02:36:39;15.93;;;8.77;;
75195;SDS011;63773;42.282;22.782;2022-12-05T02:39:12;17.02;;;8.60;;
75195;SDS011;63773;42.282;22.782;2022-12-05T02:42:22;17.90;;;9.93;;
75195;SDS011;63773;42.282;22.782;2022-12-05T02:44:31;18.17;;;8.90;;
75195;SDS011;63773;42.282;22.782;2022-12-05T02:46:57;19.10;;;9.05;;
75195;SDS011;63773;42.282;22.782;2022-12-05T02:49:25;18.25;;;9.93;;
75195;SDS011;63773;42.282;22.782;2022-12-05T02:51:52;21.63;;;10.25;;
75195;SDS011;63773;42.282;22.782;2022-12-05T02:54:19;23.42;;;9.50;;
75195;SDS011;63773;42.282;22.782;2022-12-05T02:59:11;22.50;;;9.93;;
75195;SDS011;63773;42.282;22.782;2022-12-05T03:01:37;24.33;;;10.07;;
75195;SDS011;63773;42.282;22.782;2022-12-05T03:04:03;22.13;;;10.60;;
75195;SDS011;63773;42.282;22.782;2022-12-05T03:06:29;20.17;;;9.13;;
75195;SDS011;63773;42.282;22.782;2022-12-05T03:09:06;19.35;;;10.00;;
75195;SDS011;63773;42.282;22.782;2022-12-05T03:11:37;20.23;;;10.20;;
75195;SDS011;63773;42.282;22.782;2022-12-05T03:14:05;22.70;;;9.40;;
75195;SDS011;63773;42.282;22.782;2022-12-05T03:16:32;21.13;;;10.95;;
75195;SDS011;63773;42.282;22.782;2022-12-05T03:19:02;22.17;;;10.30;;
75195;SDS011;63773;42.282;22.782;2022-12-05T03:21:34;18.63;;;9.95;;
75195;SDS011;63773;42.282;22.782;2022-12-05T03:24:04;21.67;;;10.63;;
75195;SDS011;63773;42.282;22.782;2022-12-05T03:28:59;20.13;;;10.60;;
75195;SDS011;63773;42.282;22.782;2022-12-05T03:31:33;19.85;;;11.60;;
75195;SDS011;63773;42.282;22.782;2022-12-05T03:33:59;20.23;;;11.15;;
75195;SDS011;63773;42.282;22.782;2022-12-05T03:36:31;18.58;;;10.07;;
75195;SDS011;63773;42.282;22.782;2022-12-05T03:39:05;22.25;;;10.93;;
75195;SDS011;63773;42.282;22.782;2022-12-05T03:41:42;20.50;;;9.20;;
75195;SDS011;63773;42.282;22.782;2022-12-05T03:46:50;21.30;;;12.13;;
75195;SDS011;63773;42.282;22.782;2022-12-05T03:51:51;18.77;;;9.80;;
75195;SDS011;63773;42.282;22.782;2022-12-05T03:54:24;24.35;;;11.27;;
75195;SDS011;63773;42.282;22.782;2022-12-05T03:57:02;22.83;;;10.98;;
75195;SDS011;63773;42.282;22.782;2022-12-05T04:01:53;19.60;;;11.03;;
75195;SDS011;63773;42.282;22.782;2022-12-05T04:04:23;20.17;;;9.82;;
75195;SDS011;63773;42.282;22.782;2022-12-05T04:06:50;21.55;;;10.93;;
75195;SDS011;63773;42.282;22.782;2022-12-05T04:09:25;23.40;;;9.75;;
75195;SDS011;63773;42.282;22.782;2022-12-05T04:11:52;18.85;;;9.98;;
75195;SDS011;63773;42.282;22.782;2022-12-05T04:14:21;21.60;;;10.95;;
75195;SDS011;63773;42.282;22.782;2022-12-05T04:17:22;18.98;;;9.48;;
75195;SDS011;63773;42.282;22.782;2022-12-05T04:22:29;22.98;;;10.82;;
75195;SDS011;63773;42.282;22.782;2022-12-05T04:24:54;26.83;;;11.50;;
75195;SDS011;63773;42.282;22.782;2022-12-05T04:30:12;21.83;;;11.45;;
75195;SDS011;63773;42.282;22.782;2022-12-05T04:32:39;25.52;;;12.88;;
75195;SDS011;63773;42.282;22.782;2022-12-05T04:35:15;28.83;;;16.38;;
75195;SDS011;63773;42.282;22.782;2022-12-05T04:37:41;27.08;;;12.98;;
75195;SDS011;63773;42.282;22.782;2022-12-05T04:40:10;22.23;;;11.60;;
75195;SDS011;63773;42.282;22.782;2022-12-05T04:42:37;21.27;;;10.75;;
75195;SDS011;63773;42.282;22.782;2022-12-05T04:45:05;18.17;;;10.05;;
75195;SDS011;63773;42.282;22.782;2022-12-05T04:47:34;17.52;;;8.40;;
75195;SDS011;63773;42.282;22.782;2022-12-05T04:50:01;16.58;;;7.97;;
75195;SDS011;63773;42.282;22.782;2022-12-05T04:52:27;13.02;;;7.38;;
75195;SDS011;63773;42.282;22.782;2022-12-05T04:54:57;16.02;;;7.57;;
75195;SDS011;63773;42.282;22.782;2022-12-05T04:57:25;16.75;;;7.88;;
75195;SDS011;63773;42.282;22.782;2022-12-05T04:59:51;19.02;;;8.88;;
75195;SDS011;63773;42.282;22.782;2022-12-05T05:02:18;20.85;;;10.23;;
75195;SDS011;63773;42.282;22.782;2022-12-05T05:04:46;19.77;;;9.88;;
75195;SDS011;63773;42.282;22.782;2022-12-05T05:07:12;15.88;;;8.48;;
75195;SDS011;63773;42.282;22.782;2022-12-05T05:09:38;15.85;;;7.63;;
75195;SDS011;63773;42.282;22.782;2022-12-05T05:12:03;18.17;;;7.80;;
75195;SDS011;63773;42.282;22.782;2022-12-05T05:14:29;14.63;;;7.90;;
75195;SDS011;63773;42.282;22.782;2022-12-05T05:16:55;15.35;;;7.65;;
75195;SDS011;63773;42.282;22.782;2022-12-05T05:19:20;14.05;;;6.70;;
75195;SDS011;63773;42.282;22.782;2022-12-05T05:21:45;12.17;;;5.90;;
75195;SDS011;63773;42.282;22.782;2022-12-05T05:24:12;12.18;;;6.60;;
75195;SDS011;63773;42.282;22.782;2022-12-05T05:26:40;13.77;;;7.07;;
75195;SDS011;63773;42.282;22.782;2022-12-05T05:29:06;13.77;;;6.57;;
75195;SDS011;63773;42.282;22.782;2022-12-05T05:31:32;13.90;;;7.18;;
75195;SDS011;63773;42.282;22.782;2022-12-05T05:33:57;13.88;;;7.15;;
75195;SDS011;63773;42.282;22.782;2022-12-05T05:36:23;14.00;;;6.03;;
75195;SDS011;63773;42.282;22.782;2022-12-05T05:38:50;12.98;;;7.05;;
75195;SDS011;63773;42.282;22.782;2022-12-05T05:41:20;12.70;;;6.38;;
75195;SDS011;63773;42.282;22.782;2022-12-05T05:43:46;13.05;;;6.35;;
75195;SDS011;63773;42.282;22.782;2022-12-05T05:46:11;13.88;;;7.55;;
75195;SDS011;63773;42.282;22.782;2022-12-05T05:48:37;19.08;;;10.38;;
75195;SDS011;63773;42.282;22.782;2022-12-05T05:51:03;19.90;;;8.85;;
75195;SDS011;63773;42.282;22.782;2022-12-05T05:53:29;15.80;;;8.48;;
75195;SDS011;63773;42.282;22.782;2022-12-05T05:55:54;16.05;;;8.93;;
75195;SDS011;63773;42.282;22.782;2022-12-05T05:58:20;15.10;;;8.27;;
75195;SDS011;63773;42.282;22.782;2022-12-05T06:00:45;12.18;;;6.68;;
75195;SDS011;63773;42.282;22.782;2022-12-05T06:03:10;18.50;;;10.18;;
75195;SDS011;63773;42.282;22.782;2022-12-05T06:05:36;14.93;;;7.90;;
75195;SDS011;63773;42.282;22.782;2022-12-05T06:08:01;15.70;;;8.83;;
75195;SDS011;63773;42.282;22.782;2022-12-05T06:10:27;15.52;;;8.85;;
75195;SDS011;63773;42.282;22.782;2022-12-05T06:12:54;13.43;;;8.20;;
75195;SDS011;63773;42.282;22.782;2022-12-05T06:15:19;12.00;;;7.47;;
75195;SDS011;63773;42.282;22.782;2022-12-05T06:17:44;14.37;;;7.73;;
75195;SDS011;63773;42.282;22.782;2022-12-05T06:20:10;11.80;;;6.47;;
75195;SDS011;63773;42.282;22.782;2022-12-05T06:22:35;11.35;;;6.70;;
75195;SDS011;63773;42.282;22.782;2022-12-05T06:25:00;10.95;;;6.75;;
75195;SDS011;63773;42.282;22.782;2022-12-05T06:27:28;9.27;;;5.80;;
75195;SDS011;63773;42.282;22.782;2022-12-05T06:29:53;11.23;;;5.80;;
75195;SDS011;63773;42.282;22.782;2022-12-05T06:32:18;12.50;;;7.47;;
75195;SDS011;63773;42.282;22.782;2022-12-05T06:34:44;11.05;;;6.43;;
75195;SDS011;63773;42.282;22.782;2022-12-05T06:37:09;14.65;;;6.75;;
75195;SDS011;63773;42.282;22.782;2022-12-05T06:39:35;10.32;;;5.72;;
75195;SDS011;63773;42.282;22.782;2022-12-05T06:42:00;10.70;;;6.47;;
75195;SDS011;63773;42.282;22.782;2022-12-05T06:44:26;12.73;;;6.97;;
75195;SDS011;63773;42.282;22.782;2022-12-05T06:46:53;15.23;;;6.65;;
75195;SDS011;63773;42.282;22.782;2022-12-05T06:49:19;11.23;;;6.95;;
75195;SDS011;63773;42.282;22.782;2022-12-05T06:51:45;12.25;;;6.22;;
75195;SDS011;63773;42.282;22.782;2022-12-05T06:54:11;11.45;;;7.05;;
75195;SDS011;63773;42.282;22.782;2022-12-05T06:56:36;13.90;;;7.55;;
75195;SDS011;63773;42.282;22.782;2022-12-05T06:59:01;13.27;;;7.78;;
75195;SDS011;63773;42.282;22.782;2022-12-05T07:01:27;14.20;;;8.57;;
75195;SDS011;63773;42.282;22.782;2022-12-05T07:04:14;16.45;;;9.13;;
75195;SDS011;63773;42.282;22.782;2022-12-05T07:06:40;14.23;;;8.68;;
75195;SDS011;63773;42.282;22.782;2022-12-05T07:09:06;15.85;;;8.75;;
75195;SDS011;63773;42.282;22.782;2022-12-05T07:11:32;16.88;;;9.85;;
75195;SDS011;63773;42.282;22.782;2022-12-05T07:13:58;17.50;;;9.38;;
75195;SDS011;63773;42.282;22.782;2022-12-05T07:16:23;14.60;;;9.75;;
75195;SDS011;63773;42.282;22.782;2022-12-05T07:18:49;17.73;;;10.75;;
75195;SDS011;63773;42.282;22.782;2022-12-05T07:21:14;22.15;;;12.10;;
75195;SDS011;63773;42.282;22.782;2022-12-05T07:23:41;21.88;;;10.85;;
75195;SDS011;63773;42.282;22.782;2022-12-05T07:26:08;18.25;;;10.18;;
75195;SDS011;63773;42.282;22.782;2022-12-05T07:28:33;15.73;;;9.40;;
75195;SDS011;63773;42.282;22.782;2022-12-05T07:31:00;22.35;;;12.93;;
75195;SDS011;63773;42.282;22.782;2022-12-05T07:33:26;17.17;;;11.73;;
75195;SDS011;63773;42.282;22.782;2022-12-05T07:35:51;14.82;;;10.02;;
75195;SDS011;63773;42.282;22.782;2022-12-05T07:38:17;15.07;;;10.05;;
75195;SDS011;63773;42.282;22.782;2022-12-05T07:40:42;16.05;;;8.48;;
75195;SDS011;63773;42.282;22.782;2022-12-05T07:43:07;17.80;;;10.40;;
75195;SDS011;63773;42.282;22.782;2022-12-05T07:45:33;18.63;;;10.65;;
75195;SDS011;63773;42.282;22.782;2022-12-05T07:47:59;19.50;;;9.35;;
75195;SDS011;63773;42.282;22.782;2022-12-05T07:50:25;12.02;;;7.10;;
75195;SDS011;63773;42.282;22.782;2022-12-05T07:52:50;12.63;;;7.00;;
75195;SDS011;63773;42.282;22.782;2022-12-05T07:55:16;13.00;;;7.15;;
75195;SDS011;63773;42.282;22.782;2022-12-05T07:57:41;13.88;;;7.40;;
75195;SDS011;63773;42.282;22.782;2022-12-05T08:00:07;15.30;;;7.85;;
75195;SDS011;63773;42.282;22.782;2022-12-05T08:02:32;16.83;;;9.60;;
75195;SDS011;63773;42.282;22.782;2022-12-05T08:04:57;15.68;;;9.10;;
75195;SDS011;63773;42.282;22.782;2022-12-05T08:07:23;13.10;;;7.28;;
75195;SDS011;63773;42.282;22.782;2022-12-05T08:09:48;12.55;;;6.88;;
75195;SDS011;63773;42.282;22.782;2022-12-05T08:12:14;12.75;;;6.15;;
75195;SDS011;63773;42.282;22.782;2022-12-05T08:14:39;10.88;;;6.25;;
75195;SDS011;63773;42.282;22.782;2022-12-05T08:17:04;15.13;;;7.68;;
75195;SDS011;63773;42.282;22.782;2022-12-05T08:19:30;14.50;;;8.02;;
75195;SDS011;63773;42.282;22.782;2022-12-05T08:21:55;10.10;;;5.78;;
75195;SDS011;63773;42.282;22.782;2022-12-05T08:24:20;11.05;;;6.28;;
75195;SDS011;63773;42.282;22.782;2022-12-05T08:26:46;11.73;;;6.28;;
75195;SDS011;63773;42.282;22.782;2022-12-05T08:29:12;9.65;;;5.95;;
75195;SDS011;63773;42.282;22.782;2022-12-05T08:31:39;12.07;;;6.53;;
75195;SDS011;63773;42.282;22.782;2022-12-05T08:34:04;13.95;;;7.00;;
75195;SDS011;63773;42.282;22.782;2022-12-05T08:36:30;21.60;;;9.88;;
75195;SDS011;63773;42.282;22.782;2022-12-05T08:38:56;22.63;;;12.30;;
75195;SDS011;63773;42.282;22.782;2022-12-05T08:41:21;22.05;;;13.27;;
75195;SDS011;63773;42.282;22.782;2022-12-05T08:43:47;21.52;;;12.23;;
75195;SDS011;63773;42.282;22.782;2022-12-05T08:46:13;21.25;;;10.60;;
75195;SDS011;63773;42.282;22.782;2022-12-05T08:48:38;20.30;;;10.90;;
75195;SDS011;63773;42.282;22.782;2022-12-05T08:51:04;18.20;;;11.13;;
75195;SDS011;63773;42.282;22.782;2022-12-05T08:53:30;20.58;;;12.55;;
75195;SDS011;63773;42.282;22.782;2022-12-05T08:55:59;20.50;;;9.88;;
75195;SDS011;63773;42.282;22.782;2022-12-05T08:58:24;17.02;;;10.07;;
75195;SDS011;63773;42.282;22.782;2022-12-05T09:00:50;17.85;;;9.82;;
75195;SDS011;63773;42.282;22.782;2022-12-05T09:03:15;19.27;;;9.90;;
75195;SDS011;63773;42.282;22.782;2022-12-05T09:05:40;15.80;;;8.75;;
75195;SDS011;63773;42.282;22.782;2022-12-05T09:08:06;16.38;;;9.60;;
75195;SDS011;63773;42.282;22.782;2022-12-05T09:10:31;16.23;;;10.15;;
75195;SDS011;63773;42.282;22.782;2022-12-05T09:12:57;19.25;;;10.93;;
75195;SDS011;63773;42.282;22.782;2022-12-05T09:15:22;17.08;;;9.60;;
75195;SDS011;63773;42.282;22.782;2022-12-05T09:17:47;17.70;;;9.48;;
75195;SDS011;63773;42.282;22.782;2022-12-05T09:20:13;16.27;;;9.57;;
75195;SDS011;63773;42.282;22.782;2022-12-05T09:22:39;16.35;;;9.98;;
75195;SDS011;63773;42.282;22.782;2022-12-05T09:25:04;18.83;;;10.52;;
75195;SDS011;63773;42.282;22.782;2022-12-05T09:27:30;18.90;;;9.98;;
75195;SDS011;63773;42.282;22.782;2022-12-05T09:29:55;18.40;;;10.20;;
75195;SDS011;63773;42.282;22.782;2022-12-05T09:32:21;18.33;;;9.57;;
75195;SDS011;63773;42.282;22.782;2022-12-05T09:34:46;17.10;;;9.52;;
75195;SDS011;63773;42.282;22.782;2022-12-05T09:37:11;16.45;;;10.27;;
75195;SDS011;63773;42.282;22.782;2022-12-05T09:39:37;16.50;;;9.02;;
75195;SDS011;63773;42.282;22.782;2022-12-05T09:44:52;17.48;;;9.90;;
75195;SDS011;63773;42.282;22.782;2022-12-05T09:49:59;21.27;;;10.75;;
75195;SDS011;63773;42.282;22.782;2022-12-05T09:52:28;17.35;;;9.73;;
75195;SDS011;63773;42.282;22.782;2022-12-05T09:55:05;17.70;;;10.35;;
75195;SDS011;63773;42.282;22.782;2022-12-05T09:57:33;16.90;;;10.50;;
75195;SDS011;63773;42.282;22.782;2022-12-05T09:59:59;16.42;;;9.25;;
75195;SDS011;63773;42.282;22.782;2022-12-05T10:02:28;15.50;;;9.15;;
75195;SDS011;63773;42.282;22.782;2022-12-05T10:05:03;18.10;;;9.18;;
75195;SDS011;63773;42.282;22.782;2022-12-05T10:07:36;15.45;;;9.77;;
75195;SDS011;63773;42.282;22.782;2022-12-05T10:17:29;18.77;;;10.70;;
75195;SDS011;63773;42.282;22.782;2022-12-05T10:19:57;19.92;;;10.35;;
75195;SDS011;63773;42.282;22.782;2022-12-05T10:22:24;22.25;;;11.57;;
75195;SDS011;63773;42.282;22.782;2022-12-05T10:24:55;22.92;;;13.70;;
75195;SDS011;63773;42.282;22.782;2022-12-05T10:27:35;22.88;;;11.82;;
75195;SDS011;63773;42.282;22.782;2022-12-05T10:32:30;24.88;;;11.38;;
75195;SDS011;63773;42.282;22.782;2022-12-05T10:34:59;18.83;;;11.70;;
75195;SDS011;63773;42.282;22.782;2022-12-05T10:37:26;17.20;;;10.23;;
75195;SDS011;63773;42.282;22.782;2022-12-05T10:39:54;16.55;;;10.32;;
75195;SDS011;63773;42.282;22.782;2022-12-05T10:42:30;21.13;;;10.65;;
75195;SDS011;63773;42.282;22.782;2022-12-05T10:44:57;16.58;;;9.48;;
75195;SDS011;63773;42.282;22.782;2022-12-05T10:47:23;16.20;;;10.27;;
75195;SDS011;63773;42.282;22.782;2022-12-05T10:49:49;18.40;;;9.52;;
75195;SDS011;63773;42.282;22.782;2022-12-05T10:52:15;13.88;;;8.23;;
75195;SDS011;63773;42.282;22.782;2022-12-05T10:54:45;15.88;;;9.07;;
75195;SDS011;63773;42.282;22.782;2022-12-05T10:57:25;17.40;;;9.27;;
75195;SDS011;63773;42.282;22.782;2022-12-05T10:59:50;14.27;;;8.45;;
75195;SDS011;63773;42.282;22.782;2022-12-05T11:02:25;14.48;;;9.23;;
75195;SDS011;63773;42.282;22.782;2022-12-05T11:04:51;21.08;;;10.38;;
75195;SDS011;63773;42.282;22.782;2022-12-05T11:07:25;14.57;;;8.98;;
75195;SDS011;63773;42.282;22.782;2022-12-05T11:09:52;18.40;;;9.80;;
75195;SDS011;63773;42.282;22.782;2022-12-05T11:12:22;17.35;;;10.48;;
75195;SDS011;63773;42.282;22.782;2022-12-05T11:17:53;14.52;;;9.02;;
75195;SDS011;63773;42.282;22.782;2022-12-05T11:22:42;19.10;;;9.75;;
75195;SDS011;63773;42.282;22.782;2022-12-05T11:27:59;16.27;;;8.85;;
75195;SDS011;63773;42.282;22.782;2022-12-05T11:30:26;17.50;;;8.50;;
75195;SDS011;63773;42.282;22.782;2022-12-05T11:35:37;14.52;;;7.95;;
75195;SDS011;63773;42.282;22.782;2022-12-05T11:38:03;14.35;;;8.50;;
75195;SDS011;63773;42.282;22.782;2022-12-05T11:40:33;15.18;;;8.85;;
75195;SDS011;63773;42.282;22.782;2022-12-05T11:48:25;14.13;;;7.85;;
75195;SDS011;63773;42.282;22.782;2022-12-05T12:06:53;13.75;;;7.90;;
75195;SDS011;63773;42.282;22.782;2022-12-05T12:09:29;14.15;;;8.55;;
75195;SDS011;63773;42.282;22.782;2022-12-05T12:11:59;14.00;;;7.65;;
75195;SDS011;63773;42.282;22.782;2022-12-05T12:14:45;15.07;;;7.68;;
75195;SDS011;63773;42.282;22.782;2022-12-05T12:25:36;13.38;;;7.18;;
75195;SDS011;63773;42.282;22.782;2022-12-05T12:28:10;14.98;;;9.15;;
75195;SDS011;63773;42.282;22.782;2022-12-05T12:31:01;20.63;;;11.65;;
75195;SDS011;63773;42.282;22.782;2022-12-05T12:51:53;17.20;;;8.73;;
75195;SDS011;63773;42.282;22.782;2022-12-05T12:54:37;24.80;;;12.85;;
75195;SDS011;63773;42.282;22.782;2022-12-05T12:57:25;17.20;;;8.95;;
75195;SDS011;63773;42.282;22.782;2022-12-05T12:59:59;10.60;;;7.20;;
75195;SDS011;63773;42.282;22.782;2022-12-05T13:02:30;13.85;;;7.60;;
75195;SDS011;63773;42.282;22.782;2022-12-05T13:05:00;12.68;;;7.43;;
75195;SDS011;63773;42.282;22.782;2022-12-05T13:07:29;15.18;;;8.68;;
75195;SDS011;63773;42.282;22.782;2022-12-05T13:09:59;16.50;;;9.68;;
75195;SDS011;63773;42.282;22.782;2022-12-05T13:12:27;17.30;;;9.40;;
75195;SDS011;63773;42.282;22.782;2022-12-05T13:15:37;16.45;;;9.40;;
75195;SDS011;63773;42.282;22.782;2022-12-05T13:17:43;15.65;;;8.38;;
75195;SDS011;63773;42.282;22.782;2022-12-05T13:20:13;15.18;;;8.32;;
75195;SDS011;63773;42.282;22.782;2022-12-05T13:22:40;9.93;;;6.35;;
75195;SDS011;63773;42.282;22.782;2022-12-05T13:25:05;14.60;;;8.45;;
75195;SDS011;63773;42.282;22.782;2022-12-05T13:27:31;16.50;;;9.85;;
75195;SDS011;63773;42.282;22.782;2022-12-05T13:29:59;19.27;;;9.75;;
75195;SDS011;63773;42.282;22.782;2022-12-05T13:34:51;16.17;;;7.50;;
75195;SDS011;63773;42.282;22.782;2022-12-05T13:40:00;17.70;;;8.88;;
75195;SDS011;63773;42.282;22.782;2022-12-05T13:42:44;18.25;;;9.70;;
75195;SDS011;63773;42.282;22.782;2022-12-05T13:45:10;15.50;;;8.82;;
75195;SDS011;63773;42.282;22.782;2022-12-05T13:52:50;15.38;;;9.07;;
75195;SDS011;63773;42.282;22.782;2022-12-05T13:55:20;17.40;;;9.93;;
75195;SDS011;63773;42.282;22.782;2022-12-05T13:57:48;18.05;;;9.77;;
75195;SDS011;63773;42.282;22.782;2022-12-05T14:07:52;21.85;;;15.48;;
75195;SDS011;63773;42.282;22.782;2022-12-05T14:15:34;24.00;;;14.55;;
75195;SDS011;63773;42.282;22.782;2022-12-05T14:18:08;21.27;;;14.55;;
75195;SDS011;63773;42.282;22.782;2022-12-05T14:25:50;14.52;;;9.90;;
75195;SDS011;63773;42.282;22.782;2022-12-05T14:33:20;20.67;;;12.27;;
75195;SDS011;63773;42.282;22.782;2022-12-05T14:35:47;23.95;;;12.80;;
75195;SDS011;63773;42.282;22.782;2022-12-05T14:38:45;20.58;;;11.73;;
75195;SDS011;63773;42.282;22.782;2022-12-05T14:41:21;19.45;;;9.55;;
75195;SDS011;63773;42.282;22.782;2022-12-05T14:43:51;14.90;;;9.05;;
75195;SDS011;63773;42.282;22.782;2022-12-05T14:46:23;13.07;;;7.70;;
75195;SDS011;63773;42.282;22.782;2022-12-05T14:48:48;15.70;;;7.15;;
75195;SDS011;63773;42.282;22.782;2022-12-05T14:54:08;11.68;;;6.88;;
75195;SDS011;63773;42.282;22.782;2022-12-05T14:56:45;12.50;;;6.57;;
75195;SDS011;63773;42.282;22.782;2022-12-05T15:01:57;11.48;;;7.15;;
75195;SDS011;63773;42.282;22.782;2022-12-05T15:04:31;17.48;;;8.77;;
75195;SDS011;63773;42.282;22.782;2022-12-05T15:07:02;16.85;;;9.15;;
75195;SDS011;63773;42.282;22.782;2022-12-05T15:12:20;13.00;;;8.00;;
75195;SDS011;63773;42.282;22.782;2022-12-05T15:14:49;13.35;;;7.10;;
75195;SDS011;63773;42.282;22.782;2022-12-05T15:17:18;12.50;;;6.25;;
75195;SDS011;63773;42.282;22.782;2022-12-05T15:19:50;12.43;;;7.30;;
75195;SDS011;63773;42.282;22.782;2022-12-05T15:22:16;15.00;;;8.52;;
75195;SDS011;63773;42.282;22.782;2022-12-05T15:24:44;13.45;;;7.22;;
75195;SDS011;63773;42.282;22.782;2022-12-05T15:27:09;15.32;;;6.07;;
75195;SDS011;63773;42.282;22.782;2022-12-05T15:29:36;10.13;;;6.65;;
75195;SDS011;63773;42.282;22.782;2022-12-05T15:32:02;13.20;;;6.78;;
75195;SDS011;63773;42.282;22.782;2022-12-05T15:37:09;15.88;;;8.00;;
75195;SDS011;63773;42.282;22.782;2022-12-05T15:39:48;17.92;;;9.43;;
75195;SDS011;63773;42.282;22.782;2022-12-05T15:42:14;20.23;;;10.07;;
75195;SDS011;63773;42.282;22.782;2022-12-05T15:44:40;18.90;;;10.00;;
75195;SDS011;63773;42.282;22.782;2022-12-05T15:47:14;19.15;;;10.25;;
75195;SDS011;63773;42.282;22.782;2022-12-05T15:49:43;17.50;;;11.32;;
75195;SDS011;63773;42.282;22.782;2022-12-05T15:52:30;22.92;;;12.98;;
75195;SDS011;63773;42.282;22.782;2022-12-05T15:54:58;23.52;;;14.02;;
75195;SDS011;63773;42.282;22.782;2022-12-05T15:57:26;34.67;;;17.80;;
75195;SDS011;63773;42.282;22.782;2022-12-05T15:59:54;30.25;;;17.13;;
75195;SDS011;63773;42.282;22.782;2022-12-05T16:04:49;25.80;;;15.00;;
75195;SDS011;63773;42.282;22.782;2022-12-05T16:07:16;22.27;;;14.07;;
75195;SDS011;63773;42.282;22.782;2022-12-05T16:09:43;26.48;;;14.02;;
75195;SDS011;63773;42.282;22.782;2022-12-05T16:12:20;22.98;;;14.48;;
75195;SDS011;63773;42.282;22.782;2022-12-05T16:14:48;26.55;;;14.52;;
75195;SDS011;63773;42.282;22.782;2022-12-05T16:19:39;26.27;;;15.13;;
75195;SDS011;63773;42.282;22.782;2022-12-05T16:22:05;27.30;;;13.35;;
75195;SDS011;63773;42.282;22.782;2022-12-05T16:24:31;28.30;;;14.63;;
75195;SDS011;63773;42.282;22.782;2022-12-05T16:32:35;63.17;;;27.65;;
75195;SDS011;63773;42.282;22.782;2022-12-05T16:35:01;47.97;;;21.98;;
75195;SDS011;63773;42.282;22.782;2022-12-05T16:37:27;38.50;;;20.25;;
75195;SDS011;63773;42.282;22.782;2022-12-05T16:39:53;62.33;;;27.92;;
75195;SDS011;63773;42.282;22.782;2022-12-05T16:42:28;52.55;;;25.85;;
75195;SDS011;63773;42.282;22.782;2022-12-05T16:44:57;25.90;;;13.82;;
75195;SDS011;63773;42.282;22.782;2022-12-05T16:52:45;23.27;;;11.95;;
75195;SDS011;63773;42.282;22.782;2022-12-05T16:55:11;29.00;;;15.52;;
75195;SDS011;63773;42.282;22.782;2022-12-05T16:57:38;33.53;;;17.52;;
75195;SDS011;63773;42.282;22.782;2022-12-05T17:00:04;43.40;;;16.85;;
75195;SDS011;63773;42.282;22.782;2022-12-05T17:02:30;31.77;;;14.13;;
75195;SDS011;63773;42.282;22.782;2022-12-05T17:04:55;26.27;;;13.38;;
75195;SDS011;63773;42.282;22.782;2022-12-05T17:07:21;27.90;;;12.20;;
75195;SDS011;63773;42.282;22.782;2022-12-05T17:09:46;22.95;;;12.68;;
75195;SDS011;63773;42.282;22.782;2022-12-05T17:12:15;37.20;;;17.17;;
75195;SDS011;63773;42.282;22.782;2022-12-05T17:14:42;26.55;;;13.13;;
75195;SDS011;63773;42.282;22.782;2022-12-05T17:17:13;26.80;;;13.38;;
75195;SDS011;63773;42.282;22.782;2022-12-05T17:19:43;26.73;;;13.38;;